sensor_id;sensor_type;location;lat;lon;timestamp;temperature;humidity
68011;DHT22;54794;48.348;7.878;2023-05-07T00:00:03;18.60;54.90
68011;DHT22;54794;48.348;7.878;2023-05-07T00:02:33;18.60;54.90
68011;DHT22;54794;48.348;7.878;2023-05-07T00:05:01;18.60;55.00
68011;DHT22;54794;48.348;7.878;2023-05-07T00:07:29;18.50;54.90
68011;DHT22;54794;48.348;7.878;2023-05-07T00:09:56;18.50;55.00
68011;DHT22;54794;48.348;7.878;2023-05-07T00:12:23;18.50;55.10
68011;DHT22;54794;48.348;7.878;2023-05-07T00:14:50;18.50;55.10
68011;DHT22;54794;48.348;7.878;2023-05-07T00:17:17;18.50;55.10
68011;DHT22;54794;48.348;7.878;2023-05-07T00:19:44;18.50;55.10
68011;DHT22;54794;48.348;7.878;2023-05-07T00:22:11;18.40;55.20
68011;DHT22;54794;48.348;7.878;2023-05-07T00:24:38;18.40;55.20
68011;DHT22;54794;48.348;7.878;2023-05-07T00:27:05;18.40;55.20
68011;DHT22;54794;48.348;7.878;2023-05-07T00:29:32;18.40;55.30
68011;DHT22;54794;48.348;7.878;2023-05-07T00:31:59;18.40;55.40
68011;DHT22;54794;48.348;7.878;2023-05-07T00:34:26;18.40;55.40
68011;DHT22;54794;48.348;7.878;2023-05-07T00:36:53;18.40;55.50
68011;DHT22;54794;48.348;7.878;2023-05-07T00:39:20;18.40;55.50
68011;DHT22;54794;48.348;7.878;2023-05-07T00:41:47;18.40;55.50
68011;DHT22;54794;48.348;7.878;2023-05-07T00:44:13;18.40;55.40
68011;DHT22;54794;48.348;7.878;2023-05-07T00:46:41;18.40;55.50
68011;DHT22;54794;48.348;7.878;2023-05-07T00:49:08;18.30;55.50
68011;DHT22;54794;48.348;7.878;2023-05-07T00:51:35;18.30;55.60
68011;DHT22;54794;48.348;7.878;2023-05-07T00:54:02;18.30;55.60
68011;DHT22;54794;48.348;7.878;2023-05-07T00:56:30;18.30;55.70
68011;DHT22;54794;48.348;7.878;2023-05-07T00:58:58;18.30;55.70
68011;DHT22;54794;48.348;7.878;2023-05-07T01:01:25;18.30;55.70
68011;DHT22;54794;48.348;7.878;2023-05-07T01:03:53;18.30;55.70
68011;DHT22;54794;48.348;7.878;2023-05-07T01:06:21;18.30;55.40
68011;DHT22;54794;48.348;7.878;2023-05-07T01:08:52;18.20;55.50
68011;DHT22;54794;48.348;7.878;2023-05-07T01:11:23;18.20;55.80
68011;DHT22;54794;48.348;7.878;2023-05-07T01:13:52;18.10;55.70
68011;DHT22;54794;48.348;7.878;2023-05-07T01:16:19;18.10;55.80
68011;DHT22;54794;48.348;7.878;2023-05-07T01:18:47;18.10;55.90
68011;DHT22;54794;48.348;7.878;2023-05-07T01:21:16;18.10;55.90
68011;DHT22;54794;48.348;7.878;2023-05-07T01:23:45;18.10;56.10
68011;DHT22;54794;48.348;7.878;2023-05-07T01:26:12;18.10;56.00
68011;DHT22;54794;48.348;7.878;2023-05-07T01:28:39;18.00;56.00
68011;DHT22;54794;48.348;7.878;2023-05-07T01:31:06;18.00;56.00
68011;DHT22;54794;48.348;7.878;2023-05-07T01:33:39;17.90;56.00
68011;DHT22;54794;48.348;7.878;2023-05-07T01:36:31;17.90;56.20
68011;DHT22;54794;48.348;7.878;2023-05-07T01:39:00;17.90;56.70
68011;DHT22;54794;48.348;7.878;2023-05-07T01:41:40;17.80;56.20
68011;DHT22;54794;48.348;7.878;2023-05-07T01:44:12;17.80;56.20
68011;DHT22;54794;48.348;7.878;2023-05-07T01:46:40;17.80;56.50
68011;DHT22;54794;48.348;7.878;2023-05-07T01:49:08;17.80;56.40
68011;DHT22;54794;48.348;7.878;2023-05-07T01:51:36;17.70;56.40
68011;DHT22;54794;48.348;7.878;2023-05-07T01:54:03;17.70;56.50
68011;DHT22;54794;48.348;7.878;2023-05-07T01:56:30;17.70;56.60
68011;DHT22;54794;48.348;7.878;2023-05-07T01:58:57;17.70;56.40
68011;DHT22;54794;48.348;7.878;2023-05-07T02:01:25;17.70;56.50
68011;DHT22;54794;48.348;7.878;2023-05-07T02:03:56;17.70;56.30
68011;DHT22;54794;48.348;7.878;2023-05-07T02:06:23;17.60;56.40
68011;DHT22;54794;48.348;7.878;2023-05-07T02:08:50;17.60;56.50
68011;DHT22;54794;48.348;7.878;2023-05-07T02:11:17;17.60;56.60
68011;DHT22;54794;48.348;7.878;2023-05-07T02:13:44;17.60;56.70
68011;DHT22;54794;48.348;7.878;2023-05-07T02:16:11;17.60;56.70
68011;DHT22;54794;48.348;7.878;2023-05-07T02:18:46;17.60;56.80
68011;DHT22;54794;48.348;7.878;2023-05-07T02:21:13;17.60;56.80
68011;DHT22;54794;48.348;7.878;2023-05-07T02:23:40;17.60;56.70
68011;DHT22;54794;48.348;7.878;2023-05-07T02:26:07;17.60;56.80
68011;DHT22;54794;48.348;7.878;2023-05-07T02:28:34;17.60;56.90
68011;DHT22;54794;48.348;7.878;2023-05-07T02:31:04;17.50;56.80
68011;DHT22;54794;48.348;7.878;2023-05-07T02:33:31;17.60;56.90
68011;DHT22;54794;48.348;7.878;2023-05-07T02:36:06;17.60;57.00
68011;DHT22;54794;48.348;7.878;2023-05-07T02:38:34;17.50;57.40
68011;DHT22;54794;48.348;7.878;2023-05-07T02:41:01;17.50;57.00
68011;DHT22;54794;48.348;7.878;2023-05-07T02:43:28;17.50;57.00
68011;DHT22;54794;48.348;7.878;2023-05-07T02:46:07;17.40;57.00
68011;DHT22;54794;48.348;7.878;2023-05-07T02:48:35;17.40;57.40
68011;DHT22;54794;48.348;7.878;2023-05-07T02:51:03;17.40;57.10
68011;DHT22;54794;48.348;7.878;2023-05-07T02:53:32;17.50;57.20
68011;DHT22;54794;48.348;7.878;2023-05-07T02:56:00;17.50;57.20
68011;DHT22;54794;48.348;7.878;2023-05-07T02:58:28;17.40;57.10
68011;DHT22;54794;48.348;7.878;2023-05-07T03:00:55;17.40;57.30
68011;DHT22;54794;48.348;7.878;2023-05-07T03:03:22;17.40;57.80
68011;DHT22;54794;48.348;7.878;2023-05-07T03:05:49;17.40;57.30
68011;DHT22;54794;48.348;7.878;2023-05-07T03:08:16;17.40;57.30
68011;DHT22;54794;48.348;7.878;2023-05-07T03:10:43;17.40;57.30
68011;DHT22;54794;48.348;7.878;2023-05-07T03:13:10;17.40;57.30
68011;DHT22;54794;48.348;7.878;2023-05-07T03:15:37;17.40;57.30
68011;DHT22;54794;48.348;7.878;2023-05-07T03:18:04;17.40;57.40
68011;DHT22;54794;48.348;7.878;2023-05-07T03:20:31;17.30;57.30
68011;DHT22;54794;48.348;7.878;2023-05-07T03:22:58;17.30;57.90
68011;DHT22;54794;48.348;7.878;2023-05-07T03:25:25;17.30;57.40
68011;DHT22;54794;48.348;7.878;2023-05-07T03:27:52;17.30;57.30
68011;DHT22;54794;48.348;7.878;2023-05-07T03:30:19;17.30;57.40
68011;DHT22;54794;48.348;7.878;2023-05-07T03:32:47;17.20;57.40
68011;DHT22;54794;48.348;7.878;2023-05-07T03:35:16;17.20;57.90
68011;DHT22;54794;48.348;7.878;2023-05-07T03:37:43;17.10;57.60
68011;DHT22;54794;48.348;7.878;2023-05-07T03:40:10;17.10;57.50
68011;DHT22;54794;48.348;7.878;2023-05-07T03:42:40;17.10;57.60
68011;DHT22;54794;48.348;7.878;2023-05-07T03:45:07;17.10;57.60
68011;DHT22;54794;48.348;7.878;2023-05-07T03:47:35;17.00;57.70
68011;DHT22;54794;48.348;7.878;2023-05-07T03:50:02;17.00;57.70
68011;DHT22;54794;48.348;7.878;2023-05-07T03:52:34;17.00;57.70
68011;DHT22;54794;48.348;7.878;2023-05-07T03:55:35;16.90;57.80
68011;DHT22;54794;48.348;7.878;2023-05-07T03:58:02;17.00;58.20
68011;DHT22;54794;48.348;7.878;2023-05-07T04:00:29;17.00;57.90
68011;DHT22;54794;48.348;7.878;2023-05-07T04:03:05;17.00;57.90
68011;DHT22;54794;48.348;7.878;2023-05-07T04:05:32;17.00;57.90
68011;DHT22;54794;48.348;7.878;2023-05-07T04:07:59;16.90;58.10
68011;DHT22;54794;48.348;7.878;2023-05-07T04:10:28;16.90;57.70
68011;DHT22;54794;48.348;7.878;2023-05-07T04:12:56;16.90;57.80
68011;DHT22;54794;48.348;7.878;2023-05-07T04:15:45;16.90;57.90
68011;DHT22;54794;48.348;7.878;2023-05-07T04:18:15;16.90;58.60
68011;DHT22;54794;48.348;7.878;2023-05-07T04:20:42;16.80;58.00
68011;DHT22;54794;48.348;7.878;2023-05-07T04:23:09;16.80;58.00
68011;DHT22;54794;48.348;7.878;2023-05-07T04:25:36;16.80;58.10
68011;DHT22;54794;48.348;7.878;2023-05-07T04:28:03;16.80;58.10
68011;DHT22;54794;48.348;7.878;2023-05-07T04:30:30;16.80;58.20
68011;DHT22;54794;48.348;7.878;2023-05-07T04:32:57;16.70;58.20
68011;DHT22;54794;48.348;7.878;2023-05-07T04:35:24;16.70;58.20
68011;DHT22;54794;48.348;7.878;2023-05-07T04:37:51;16.70;58.30
68011;DHT22;54794;48.348;7.878;2023-05-07T04:40:18;16.70;58.40
68011;DHT22;54794;48.348;7.878;2023-05-07T04:42:45;16.60;58.40
68011;DHT22;54794;48.348;7.878;2023-05-07T04:45:12;16.60;58.40
68011;DHT22;54794;48.348;7.878;2023-05-07T04:47:39;16.60;58.50
68011;DHT22;54794;48.348;7.878;2023-05-07T04:50:06;16.60;58.60
68011;DHT22;54794;48.348;7.878;2023-05-07T04:52:35;16.60;58.70
68011;DHT22;54794;48.348;7.878;2023-05-07T04:55:02;16.60;58.70
68011;DHT22;54794;48.348;7.878;2023-05-07T04:57:29;16.60;58.80
68011;DHT22;54794;48.348;7.878;2023-05-07T04:59:56;16.60;58.80
68011;DHT22;54794;48.348;7.878;2023-05-07T05:02:23;16.70;58.90
68011;DHT22;54794;48.348;7.878;2023-05-07T05:04:50;16.70;58.90
68011;DHT22;54794;48.348;7.878;2023-05-07T05:07:17;16.70;58.90
68011;DHT22;54794;48.348;7.878;2023-05-07T05:10:15;16.70;58.90
68011;DHT22;54794;48.348;7.878;2023-05-07T05:13:14;16.80;59.00
68011;DHT22;54794;48.348;7.878;2023-05-07T05:16:18;16.80;59.20
68011;DHT22;54794;48.348;7.878;2023-05-07T05:19:01;16.80;58.80
68011;DHT22;54794;48.348;7.878;2023-05-07T05:21:53;16.80;59.00
68011;DHT22;54794;48.348;7.878;2023-05-07T05:24:48;16.80;59.00
68011;DHT22;54794;48.348;7.878;2023-05-07T05:27:34;16.80;59.40
68011;DHT22;54794;48.348;7.878;2023-05-07T05:30:19;16.80;59.30
68011;DHT22;54794;48.348;7.878;2023-05-07T05:33:32;16.80;59.20
68011;DHT22;54794;48.348;7.878;2023-05-07T05:37:14;16.90;59.90
68011;DHT22;54794;48.348;7.878;2023-05-07T05:40:03;16.90;59.40
68011;DHT22;54794;48.348;7.878;2023-05-07T05:43:00;17.00;59.40
68011;DHT22;54794;48.348;7.878;2023-05-07T05:46:20;17.00;59.30
68011;DHT22;54794;48.348;7.878;2023-05-07T05:49:13;17.00;59.90
68011;DHT22;54794;48.348;7.878;2023-05-07T05:52:07;17.20;59.40
68011;DHT22;54794;48.348;7.878;2023-05-07T05:55:15;17.10;59.80
68011;DHT22;54794;48.348;7.878;2023-05-07T05:57:45;17.20;59.60
68011;DHT22;54794;48.348;7.878;2023-05-07T06:00:55;17.20;59.70
68011;DHT22;54794;48.348;7.878;2023-05-07T06:03:49;17.20;60.10
68011;DHT22;54794;48.348;7.878;2023-05-07T06:06:55;17.10;59.70
68011;DHT22;54794;48.348;7.878;2023-05-07T06:09:57;17.40;59.90
68011;DHT22;54794;48.348;7.878;2023-05-07T06:12:41;17.50;59.90
68011;DHT22;54794;48.348;7.878;2023-05-07T06:15:17;17.50;59.90
68011;DHT22;54794;48.348;7.878;2023-05-07T06:18:42;17.60;60.00
68011;DHT22;54794;48.348;7.878;2023-05-07T06:21:41;17.70;60.60
68011;DHT22;54794;48.348;7.878;2023-05-07T06:24:26;17.80;60.20
68011;DHT22;54794;48.348;7.878;2023-05-07T06:27:17;17.90;60.30
68011;DHT22;54794;48.348;7.878;2023-05-07T06:30:29;18.10;60.50
68011;DHT22;54794;48.348;7.878;2023-05-07T06:33:29;18.10;61.00
68011;DHT22;54794;48.348;7.878;2023-05-07T06:36:13;18.20;60.40
68011;DHT22;54794;48.348;7.878;2023-05-07T06:38:49;18.30;60.30
68011;DHT22;54794;48.348;7.878;2023-05-07T06:41:44;18.30;60.20
68011;DHT22;54794;48.348;7.878;2023-05-07T06:44:44;18.50;60.30
68011;DHT22;54794;48.348;7.878;2023-05-07T06:47:40;18.60;60.50
68011;DHT22;54794;48.348;7.878;2023-05-07T06:50:43;18.70;60.00
68011;DHT22;54794;48.348;7.878;2023-05-07T06:53:25;18.70;60.00
68011;DHT22;54794;48.348;7.878;2023-05-07T06:56:28;18.80;60.10
68011;DHT22;54794;48.348;7.878;2023-05-07T06:59:17;18.90;60.40
68011;DHT22;54794;48.348;7.878;2023-05-07T07:01:58;19.00;60.40
68011;DHT22;54794;48.348;7.878;2023-05-07T07:04:57;19.10;60.20
68011;DHT22;54794;48.348;7.878;2023-05-07T07:07:37;19.10;60.10
68011;DHT22;54794;48.348;7.878;2023-05-07T07:10:10;19.20;59.80
68011;DHT22;54794;48.348;7.878;2023-05-07T07:13:17;19.30;59.80
68011;DHT22;54794;48.348;7.878;2023-05-07T07:16:12;19.40;59.80
68011;DHT22;54794;48.348;7.878;2023-05-07T07:18:59;19.40;59.70
68011;DHT22;54794;48.348;7.878;2023-05-07T07:22:09;19.50;59.80
68011;DHT22;54794;48.348;7.878;2023-05-07T07:24:44;19.60;59.60
68011;DHT22;54794;48.348;7.878;2023-05-07T07:27:50;19.60;59.50
68011;DHT22;54794;48.348;7.878;2023-05-07T07:30:41;19.70;59.60
68011;DHT22;54794;48.348;7.878;2023-05-07T07:33:31;19.70;59.40
68011;DHT22;54794;48.348;7.878;2023-05-07T07:36:23;19.70;59.80
68011;DHT22;54794;48.348;7.878;2023-05-07T07:39:19;19.80;59.90
68011;DHT22;54794;48.348;7.878;2023-05-07T07:42:15;19.90;60.00
68011;DHT22;54794;48.348;7.878;2023-05-07T07:44:55;20.10;59.90
68011;DHT22;54794;48.348;7.878;2023-05-07T07:47:42;20.20;59.80
68011;DHT22;54794;48.348;7.878;2023-05-07T07:50:22;20.30;59.70
68011;DHT22;54794;48.348;7.878;2023-05-07T07:53:11;20.40;59.70
68011;DHT22;54794;48.348;7.878;2023-05-07T07:55:43;20.50;59.60
68011;DHT22;54794;48.348;7.878;2023-05-07T07:58:36;20.60;59.40
68011;DHT22;54794;48.348;7.878;2023-05-07T08:01:23;20.70;59.40
68011;DHT22;54794;48.348;7.878;2023-05-07T08:04:19;20.80;59.40
68011;DHT22;54794;48.348;7.878;2023-05-07T08:07:16;20.90;59.70
68011;DHT22;54794;48.348;7.878;2023-05-07T08:13:36;21.10;59.20
68011;DHT22;54794;48.348;7.878;2023-05-07T08:16:20;21.20;59.10
68011;DHT22;54794;48.348;7.878;2023-05-07T08:19:41;21.30;59.20
68011;DHT22;54794;48.348;7.878;2023-05-07T08:22:26;21.40;59.50
68011;DHT22;54794;48.348;7.878;2023-05-07T08:25:02;21.60;59.30
68011;DHT22;54794;48.348;7.878;2023-05-07T08:27:41;21.70;59.00
68011;DHT22;54794;48.348;7.878;2023-05-07T08:30:33;21.70;58.70
68011;DHT22;54794;48.348;7.878;2023-05-07T08:36:26;21.90;58.40
68011;DHT22;54794;48.348;7.878;2023-05-07T08:39:13;21.90;58.30
68011;DHT22;54794;48.348;7.878;2023-05-07T08:41:58;22.00;58.30
68011;DHT22;54794;48.348;7.878;2023-05-07T08:45:05;22.00;58.30
68011;DHT22;54794;48.348;7.878;2023-05-07T08:47:55;22.00;58.40
68011;DHT22;54794;48.348;7.878;2023-05-07T08:50:54;22.20;58.40
68011;DHT22;54794;48.348;7.878;2023-05-07T08:56:40;22.30;58.40
68011;DHT22;54794;48.348;7.878;2023-05-07T08:59:53;22.50;58.40
68011;DHT22;54794;48.348;7.878;2023-05-07T09:06:48;22.80;58.00
68011;DHT22;54794;48.348;7.878;2023-05-07T09:09:23;22.90;57.90
68011;DHT22;54794;48.348;7.878;2023-05-07T09:12:10;23.00;57.70
68011;DHT22;54794;48.348;7.878;2023-05-07T09:15:11;23.00;57.40
68011;DHT22;54794;48.348;7.878;2023-05-07T09:17:42;23.10;56.90
68011;DHT22;54794;48.348;7.878;2023-05-07T09:20:31;23.20;57.10
68011;DHT22;54794;48.348;7.878;2023-05-07T09:23:34;23.20;56.90
68011;DHT22;54794;48.348;7.878;2023-05-07T09:26:19;23.30;56.70
68011;DHT22;54794;48.348;7.878;2023-05-07T09:29:21;23.40;56.60
68011;DHT22;54794;48.348;7.878;2023-05-07T09:32:16;23.40;56.60
68011;DHT22;54794;48.348;7.878;2023-05-07T09:34:58;23.50;56.10
68011;DHT22;54794;48.348;7.878;2023-05-07T09:37:59;23.60;55.40
68011;DHT22;54794;48.348;7.878;2023-05-07T09:40:52;23.60;55.60
68011;DHT22;54794;48.348;7.878;2023-05-07T09:43:54;23.70;56.10
68011;DHT22;54794;48.348;7.878;2023-05-07T09:46:42;23.80;55.50
68011;DHT22;54794;48.348;7.878;2023-05-07T09:49:33;23.80;55.80
68011;DHT22;54794;48.348;7.878;2023-05-07T09:52:11;23.90;55.80
68011;DHT22;54794;48.348;7.878;2023-05-07T09:54:52;23.90;55.80
68011;DHT22;54794;48.348;7.878;2023-05-07T09:57:25;24.00;55.80
68011;DHT22;54794;48.348;7.878;2023-05-07T10:00:09;24.10;55.60
68011;DHT22;54794;48.348;7.878;2023-05-07T10:03:06;24.10;55.10
68011;DHT22;54794;48.348;7.878;2023-05-07T10:05:52;24.20;55.50
68011;DHT22;54794;48.348;7.878;2023-05-07T10:11:26;24.20;55.30
68011;DHT22;54794;48.348;7.878;2023-05-07T10:14:23;24.00;55.10
68011;DHT22;54794;48.348;7.878;2023-05-07T10:17:02;24.40;54.80
68011;DHT22;54794;48.348;7.878;2023-05-07T10:19:59;24.50;55.10
68011;DHT22;54794;48.348;7.878;2023-05-07T10:22:55;24.50;54.20
68011;DHT22;54794;48.348;7.878;2023-05-07T10:25:54;24.60;54.70
68011;DHT22;54794;48.348;7.878;2023-05-07T10:28:43;24.70;54.80
68011;DHT22;54794;48.348;7.878;2023-05-07T10:31:52;24.80;54.50
68011;DHT22;54794;48.348;7.878;2023-05-07T10:37:41;25.00;54.40
68011;DHT22;54794;48.348;7.878;2023-05-07T10:40:09;25.10;54.50
68011;DHT22;54794;48.348;7.878;2023-05-07T10:42:37;25.10;54.30
68011;DHT22;54794;48.348;7.878;2023-05-07T10:45:14;25.20;54.20
68011;DHT22;54794;48.348;7.878;2023-05-07T10:51:20;25.30;53.30
68011;DHT22;54794;48.348;7.878;2023-05-07T10:56:36;25.30;53.40
68011;DHT22;54794;48.348;7.878;2023-05-07T11:04:25;25.40;53.70
68011;DHT22;54794;48.348;7.878;2023-05-07T11:15:07;25.40;53.70
68011;DHT22;54794;48.348;7.878;2023-05-07T11:17:56;25.50;54.30
68011;DHT22;54794;48.348;7.878;2023-05-07T11:20:49;25.60;54.10
68011;DHT22;54794;48.348;7.878;2023-05-07T11:26:21;25.80;54.20
68011;DHT22;54794;48.348;7.878;2023-05-07T11:29:27;25.80;54.20
68011;DHT22;54794;48.348;7.878;2023-05-07T11:32:32;25.90;53.70
68011;DHT22;54794;48.348;7.878;2023-05-07T11:35:22;26.00;53.50
68011;DHT22;54794;48.348;7.878;2023-05-07T11:38:04;26.00;53.40
68011;DHT22;54794;48.348;7.878;2023-05-07T11:40:31;26.00;53.40
68011;DHT22;54794;48.348;7.878;2023-05-07T11:42:58;26.00;53.10
68011;DHT22;54794;48.348;7.878;2023-05-07T11:45:25;25.90;52.90
68011;DHT22;54794;48.348;7.878;2023-05-07T11:47:52;25.80;52.90
68011;DHT22;54794;48.348;7.878;2023-05-07T11:50:19;25.80;53.20
68011;DHT22;54794;48.348;7.878;2023-05-07T11:52:55;25.80;53.80
68011;DHT22;54794;48.348;7.878;2023-05-07T11:55:26;25.70;52.40
68011;DHT22;54794;48.348;7.878;2023-05-07T11:57:54;25.70;52.60
68011;DHT22;54794;48.348;7.878;2023-05-07T12:00:21;25.60;52.70
68011;DHT22;54794;48.348;7.878;2023-05-07T12:02:49;25.50;52.80
68011;DHT22;54794;48.348;7.878;2023-05-07T12:05:16;25.40;52.90
68011;DHT22;54794;48.348;7.878;2023-05-07T12:07:44;25.40;52.60
68011;DHT22;54794;48.348;7.878;2023-05-07T12:10:11;25.30;52.70
68011;DHT22;54794;48.348;7.878;2023-05-07T12:12:45;25.20;52.10
68011;DHT22;54794;48.348;7.878;2023-05-07T12:15:22;25.10;52.80
68011;DHT22;54794;48.348;7.878;2023-05-07T12:17:50;25.00;52.70
68011;DHT22;54794;48.348;7.878;2023-05-07T12:20:19;25.00;53.10
68011;DHT22;54794;48.348;7.878;2023-05-07T12:22:47;25.00;53.10
68011;DHT22;54794;48.348;7.878;2023-05-07T12:25:19;25.00;53.00
68011;DHT22;54794;48.348;7.878;2023-05-07T12:27:51;25.00;53.10
68011;DHT22;54794;48.348;7.878;2023-05-07T12:30:19;25.00;53.10
68011;DHT22;54794;48.348;7.878;2023-05-07T12:32:46;25.00;53.30
68011;DHT22;54794;48.348;7.878;2023-05-07T12:35:13;25.00;53.70
68011;DHT22;54794;48.348;7.878;2023-05-07T12:37:40;25.00;53.60
68011;DHT22;54794;48.348;7.878;2023-05-07T12:40:09;25.00;53.70
68011;DHT22;54794;48.348;7.878;2023-05-07T12:42:39;25.00;53.80
68011;DHT22;54794;48.348;7.878;2023-05-07T12:45:15;25.00;53.50
68011;DHT22;54794;48.348;7.878;2023-05-07T12:47:44;25.00;53.40
68011;DHT22;54794;48.348;7.878;2023-05-07T12:50:13;25.00;53.50
68011;DHT22;54794;48.348;7.878;2023-05-07T12:52:47;25.00;53.60
68011;DHT22;54794;48.348;7.878;2023-05-07T12:55:16;25.00;53.50
68011;DHT22;54794;48.348;7.878;2023-05-07T12:57:48;24.90;53.80
68011;DHT22;54794;48.348;7.878;2023-05-07T13:00:15;24.90;53.60
68011;DHT22;54794;48.348;7.878;2023-05-07T13:02:44;24.90;53.50
68011;DHT22;54794;48.348;7.878;2023-05-07T13:05:12;24.80;53.50
68011;DHT22;54794;48.348;7.878;2023-05-07T13:07:40;24.80;53.50
68011;DHT22;54794;48.348;7.878;2023-05-07T13:10:07;24.80;53.70
68011;DHT22;54794;48.348;7.878;2023-05-07T13:12:35;24.80;53.70
68011;DHT22;54794;48.348;7.878;2023-05-07T13:15:02;24.80;53.70
68011;DHT22;54794;48.348;7.878;2023-05-07T13:17:30;24.80;53.60
68011;DHT22;54794;48.348;7.878;2023-05-07T13:19:58;24.70;53.50
68011;DHT22;54794;48.348;7.878;2023-05-07T13:22:25;24.70;53.70
68011;DHT22;54794;48.348;7.878;2023-05-07T13:24:53;24.60;53.60
68011;DHT22;54794;48.348;7.878;2023-05-07T13:27:20;24.60;53.60
68011;DHT22;54794;48.348;7.878;2023-05-07T13:30:03;24.60;53.70
68011;DHT22;54794;48.348;7.878;2023-05-07T13:32:40;24.60;53.80
68011;DHT22;54794;48.348;7.878;2023-05-07T13:35:25;24.60;53.70
68011;DHT22;54794;48.348;7.878;2023-05-07T13:38:04;24.50;53.60
68011;DHT22;54794;48.348;7.878;2023-05-07T13:41:19;24.50;53.60
68011;DHT22;54794;48.348;7.878;2023-05-07T13:43:58;24.60;53.70
68011;DHT22;54794;48.348;7.878;2023-05-07T13:47:12;24.60;53.70
68011;DHT22;54794;48.348;7.878;2023-05-07T13:49:56;24.70;53.90
68011;DHT22;54794;48.348;7.878;2023-05-07T13:52:27;24.70;53.60
68011;DHT22;54794;48.348;7.878;2023-05-07T13:55:08;24.70;53.30
68011;DHT22;54794;48.348;7.878;2023-05-07T13:58:02;24.80;52.90
68011;DHT22;54794;48.348;7.878;2023-05-07T14:00:39;24.70;53.00
68011;DHT22;54794;48.348;7.878;2023-05-07T14:03:21;24.70;53.00
68011;DHT22;54794;48.348;7.878;2023-05-07T14:05:54;24.80;52.90
68011;DHT22;54794;48.348;7.878;2023-05-07T14:08:35;24.80;52.90
68011;DHT22;54794;48.348;7.878;2023-05-07T14:11:04;24.70;52.70
68011;DHT22;54794;48.348;7.878;2023-05-07T14:13:41;24.60;52.50
68011;DHT22;54794;48.348;7.878;2023-05-07T14:16:12;24.60;52.60
68011;DHT22;54794;48.348;7.878;2023-05-07T14:18:50;24.50;52.40
68011;DHT22;54794;48.348;7.878;2023-05-07T14:21:26;24.50;52.10
68011;DHT22;54794;48.348;7.878;2023-05-07T14:23:56;24.50;52.10
68011;DHT22;54794;48.348;7.878;2023-05-07T14:26:30;24.40;52.20
68011;DHT22;54794;48.348;7.878;2023-05-07T14:29:09;24.30;52.20
68011;DHT22;54794;48.348;7.878;2023-05-07T14:31:42;24.20;52.00
68011;DHT22;54794;48.348;7.878;2023-05-07T14:34:24;24.20;52.20
68011;DHT22;54794;48.348;7.878;2023-05-07T14:37:06;24.10;52.30
68011;DHT22;54794;48.348;7.878;2023-05-07T14:39:53;24.10;52.30
68011;DHT22;54794;48.348;7.878;2023-05-07T14:42:46;24.10;52.00
68011;DHT22;54794;48.348;7.878;2023-05-07T14:45:32;24.00;52.30
68011;DHT22;54794;48.348;7.878;2023-05-07T14:48:16;24.10;52.50
68011;DHT22;54794;48.348;7.878;2023-05-07T14:50:59;23.90;52.50
68011;DHT22;54794;48.348;7.878;2023-05-07T14:53:46;23.90;52.70
68011;DHT22;54794;48.348;7.878;2023-05-07T14:56:29;24.00;52.70
68011;DHT22;54794;48.348;7.878;2023-05-07T14:59:05;24.00;52.80
68011;DHT22;54794;48.348;7.878;2023-05-07T15:01:35;24.10;53.30
68011;DHT22;54794;48.348;7.878;2023-05-07T15:04:12;24.10;53.10
68011;DHT22;54794;48.348;7.878;2023-05-07T15:07:15;24.20;53.10
68011;DHT22;54794;48.348;7.878;2023-05-07T15:10:13;24.40;52.80
68011;DHT22;54794;48.348;7.878;2023-05-07T15:12:58;24.40;52.80
68011;DHT22;54794;48.348;7.878;2023-05-07T15:15:49;24.50;52.80
68011;DHT22;54794;48.348;7.878;2023-05-07T15:18:26;24.50;52.50
68011;DHT22;54794;48.348;7.878;2023-05-07T15:21:12;24.50;52.60
68011;DHT22;54794;48.348;7.878;2023-05-07T15:24:03;24.50;52.50
68011;DHT22;54794;48.348;7.878;2023-05-07T15:26:57;24.50;52.40
68011;DHT22;54794;48.348;7.878;2023-05-07T15:29:29;24.40;52.20
68011;DHT22;54794;48.348;7.878;2023-05-07T15:31:59;24.40;52.30
68011;DHT22;54794;48.348;7.878;2023-05-07T15:34:43;24.50;52.40
68011;DHT22;54794;48.348;7.878;2023-05-07T15:37:33;24.40;52.40
68011;DHT22;54794;48.348;7.878;2023-05-07T15:40:39;24.50;52.70
68011;DHT22;54794;48.348;7.878;2023-05-07T15:43:20;24.50;52.70
68011;DHT22;54794;48.348;7.878;2023-05-07T15:46:11;24.50;52.70
68011;DHT22;54794;48.348;7.878;2023-05-07T15:52:20;24.50;53.10
68011;DHT22;54794;48.348;7.878;2023-05-07T15:54:58;24.60;52.80
68011;DHT22;54794;48.348;7.878;2023-05-07T15:58:01;24.70;52.80
68011;DHT22;54794;48.348;7.878;2023-05-07T16:04:03;24.70;52.40
68011;DHT22;54794;48.348;7.878;2023-05-07T16:07:01;24.70;52.40
68011;DHT22;54794;48.348;7.878;2023-05-07T16:10:49;24.70;52.50
68011;DHT22;54794;48.348;7.878;2023-05-07T16:14:18;24.70;52.60
68011;DHT22;54794;48.348;7.878;2023-05-07T16:16:45;24.80;52.80
68011;DHT22;54794;48.348;7.878;2023-05-07T16:19:49;24.80;52.80
68011;DHT22;54794;48.348;7.878;2023-05-07T16:27:03;24.90;52.70
68011;DHT22;54794;48.348;7.878;2023-05-07T16:30:17;24.90;52.20
68011;DHT22;54794;48.348;7.878;2023-05-07T16:33:45;25.00;52.10
68011;DHT22;54794;48.348;7.878;2023-05-07T16:41:05;24.90;52.10
68011;DHT22;54794;48.348;7.878;2023-05-07T16:44:02;24.80;52.10
68011;DHT22;54794;48.348;7.878;2023-05-07T16:46:37;24.80;52.20
68011;DHT22;54794;48.348;7.878;2023-05-07T16:49:17;24.70;52.30
68011;DHT22;54794;48.348;7.878;2023-05-07T16:52:16;24.70;52.30
68011;DHT22;54794;48.348;7.878;2023-05-07T17:03:29;24.70;52.10
68011;DHT22;54794;48.348;7.878;2023-05-07T17:06:53;24.60;52.10
68011;DHT22;54794;48.348;7.878;2023-05-07T17:17:30;24.40;52.10
68011;DHT22;54794;48.348;7.878;2023-05-07T18:44:15;23.50;53.20
68011;DHT22;54794;48.348;7.878;2023-05-07T18:46:58;23.40;53.40
68011;DHT22;54794;48.348;7.878;2023-05-07T18:49:47;23.40;53.30
68011;DHT22;54794;48.348;7.878;2023-05-07T18:52:54;23.40;53.30
68011;DHT22;54794;48.348;7.878;2023-05-07T18:55:44;23.40;53.30
68011;DHT22;54794;48.348;7.878;2023-05-07T18:58:34;23.30;53.30
68011;DHT22;54794;48.348;7.878;2023-05-07T19:01:09;23.30;53.30
68011;DHT22;54794;48.348;7.878;2023-05-07T19:04:02;23.20;53.40
68011;DHT22;54794;48.348;7.878;2023-05-07T19:06:52;23.20;53.60
68011;DHT22;54794;48.348;7.878;2023-05-07T19:10:01;23.10;53.40
68011;DHT22;54794;48.348;7.878;2023-05-07T19:13:10;23.00;53.60
68011;DHT22;54794;48.348;7.878;2023-05-07T19:16:08;23.00;53.60
68011;DHT22;54794;48.348;7.878;2023-05-07T19:19:25;23.00;53.60
68011;DHT22;54794;48.348;7.878;2023-05-07T19:22:19;22.90;53.70
68011;DHT22;54794;48.348;7.878;2023-05-07T19:25:47;22.80;53.80
68011;DHT22;54794;48.348;7.878;2023-05-07T19:28:50;22.80;53.90
68011;DHT22;54794;48.348;7.878;2023-05-07T19:31:46;22.80;53.80